Time;durP1;ratioP1;P1;durP2;ratioP2;P2;SDS_P1;SDS_P2;PMS_P1;PMS_P2;Temp;Humidity;BMP_temperature;BMP_pressure;BME280_temperature;BME280_humidity;BME280_pressure;Samples;Min_cycle;Max_cycle;Signal;HPM_P1;HPM_P2
2023/04/18 00:00:51;;;;;;;15.30;13.27;;;;;;;;;;5084392;28;20193;-68
2023/04/18 00:03:19;;;;;;;14.15;12.13;;;;;;;;;;5084181;28;20196;-68
2023/04/18 00:05:47;;;;;;;16.35;12.52;;;;;;;;;;5084081;28;20219;-68
2023/04/18 00:08:13;;;;;;;14.02;12.63;;;;;;;;;;5084127;28;20504;-68
2023/04/18 00:10:41;;;;;;;15.05;12.52;;;;;;;;;;5083762;28;20220;-68
2023/04/18 00:13:07;;;;;;;13.15;11.75;;;;;;;;;;5083917;28;20239;-68
2023/04/18 00:15:34;;;;;;;13.15;11.90;;;;;;;;;;5083935;28;20263;-68
2023/04/18 00:18:02;;;;;;;14.10;12.55;;;;;;;;;;5083798;28;20197;-68
2023/04/18 00:20:29;;;;;;;14.30;12.13;;;;;;;;;;5083883;28;20200;-68
2023/04/18 00:22:55;;;;;;;14.50;11.35;;;;;;;;;;5083713;28;20196;-68
2023/04/18 00:25:21;;;;;;;12.90;11.45;;;;;;;;;;5082906;28;20204;-68
2023/04/18 00:27:49;;;;;;;12.90;11.55;;;;;;;;;;5083878;28;20217;-68
2023/04/18 00:30:15;;;;;;;14.18;11.93;;;;;;;;;;5083979;28;20539;-68
2023/04/18 00:32:41;;;;;;;12.75;11.32;;;;;;;;;;5083668;28;20208;-68
2023/04/18 00:35:08;;;;;;;12.95;11.55;;;;;;;;;;5083466;28;20372;-68
2023/04/18 00:37:34;;;;;;;13.73;12.32;;;;;;;;;;5083447;28;20203;-68
2023/04/18 00:40:00;;;;;;;12.50;11.32;;;;;;;;;;5083518;28;20196;-68
2023/04/18 00:42:28;;;;;;;13.20;11.90;;;;;;;;;;5083405;28;20200;-68
2023/04/18 00:44:55;;;;;;;14.20;11.48;;;;;;;;;;5083431;28;20203;-68
2023/04/18 00:47:22;;;;;;;13.02;11.35;;;;;;;;;;5083569;28;20197;-68
2023/04/18 00:49:48;;;;;;;12.38;11.05;;;;;;;;;;5083237;28;20196;-68
2023/04/18 00:52:15;;;;;;;12.13;10.90;;;;;;;;;;5082872;28;20227;-68
2023/04/18 00:54:42;;;;;;;12.50;11.20;;;;;;;;;;5083209;28;20200;-68
2023/04/18 00:57:09;;;;;;;13.15;11.43;;;;;;;;;;5083370;28;20200;-68
2023/04/18 00:59:35;;;;;;;13.07;11.68;;;;;;;;;;5083164;28;20196;-68
2023/04/18 01:02:03;;;;;;;12.75;11.48;;;;;;;;;;5082982;28;20250;-68
2023/04/18 01:04:30;;;;;;;12.90;11.48;;;;;;;;;;5083276;28;20205;-68
2023/04/18 01:06:57;;;;;;;12.32;11.00;;;;;;;;;;5083102;28;20267;-68
2023/04/18 01:09:23;;;;;;;13.65;11.80;;;;;;;;;;5083130;28;20449;-68
2023/04/18 01:11:50;;;;;;;13.05;11.23;;;;;;;;;;5082835;28;20224;-68
2023/04/18 01:14:18;;;;;;;12.95;10.63;;;;;;;;;;5082593;28;20516;-68
2023/04/18 01:16:44;;;;;;;12.05;10.90;;;;;;;;;;5082787;28;20196;-68
2023/04/18 01:19:12;;;;;;;14.73;11.98;;;;;;;;;;5082612;28;20527;-68
2023/04/18 01:21:42;;;;;;;12.43;10.30;;;;;;;;;;5082426;28;20200;-68
2023/04/18 01:24:10;;;;;;;13.13;11.82;;;;;;;;;;5082312;28;20216;-68
2023/04/18 01:26:37;;;;;;;12.02;10.73;;;;;;;;;;5082404;28;20199;-68
2023/04/18 01:29:03;;;;;;;12.93;11.07;;;;;;;;;;5082881;28;20282;-68
2023/04/18 01:31:29;;;;;;;14.27;11.38;;;;;;;;;;5082500;28;20242;-68
2023/04/18 01:33:56;;;;;;;11.90;10.65;;;;;;;;;;5082587;28;20397;-68
2023/04/18 01:36:22;;;;;;;11.70;10.50;;;;;;;;;;5082300;28;20196;-69
2023/04/18 01:38:48;;;;;;;12.82;10.95;;;;;;;;;;5082623;28;20422;-69
2023/04/18 01:41:16;;;;;;;12.93;11.50;;;;;;;;;;5082165;28;20189;-69
2023/04/18 01:43:42;;;;;;;12.40;11.10;;;;;;;;;;5082150;28;20234;-69
2023/04/18 01:46:08;;;;;;;11.23;10.13;;;;;;;;;;5082350;28;20200;-69
2023/04/18 01:48:34;;;;;;;12.50;11.20;;;;;;;;;;5082304;28;20204;-68
2023/04/18 01:51:01;;;;;;;13.80;10.23;;;;;;;;;;5082204;28;20244;-68
2023/04/18 01:53:27;;;;;;;12.52;10.07;;;;;;;;;;5082465;28;20196;-68
2023/04/18 01:55:53;;;;;;;12.70;10.65;;;;;;;;;;5082050;28;20196;-68
2023/04/18 01:58:22;;;;;;;11.93;9.00;;;;;;;;;;5082318;28;20196;-68
2023/04/18 02:00:50;;;;;;;11.10;10.00;;;;;;;;;;5082181;28;20230;-68
2023/04/18 02:03:16;;;;;;;10.98;9.95;;;;;;;;;;5082074;28;20196;-68
2023/04/18 02:05:42;;;;;;;12.18;10.15;;;;;;;;;;5082208;28;20196;-68
2023/04/18 02:08:10;;;;;;;10.43;9.43;;;;;;;;;;5081958;28;20197;-68
2023/04/18 02:10:36;;;;;;;11.82;9.75;;;;;;;;;;5082012;28;20239;-68
2023/04/18 02:13:03;;;;;;;11.55;10.07;;;;;;;;;;5081972;28;20258;-68
2023/04/18 02:15:31;;;;;;;11.18;9.95;;;;;;;;;;5082150;28;20539;-68
2023/04/18 02:17:58;;;;;;;11.88;10.65;;;;;;;;;;5082141;28;20196;-68
2023/04/18 02:20:25;;;;;;;13.27;10.45;;;;;;;;;;5082375;28;20196;-68
2023/04/18 02:22:51;;;;;;;11.40;10.20;;;;;;;;;;5081526;28;20197;-68
2023/04/18 02:25:18;;;;;;;10.68;9.65;;;;;;;;;;5082300;28;20197;-68
2023/04/18 02:27:44;;;;;;;11.40;10.20;;;;;;;;;;5082015;28;20223;-68
2023/04/18 02:30:11;;;;;;;11.65;10.32;;;;;;;;;;5081881;28;20234;-68
2023/04/18 02:32:38;;;;;;;11.20;10.02;;;;;;;;;;5081744;28;20290;-68
2023/04/18 02:35:05;;;;;;;10.45;9.40;;;;;;;;;;5082016;28;20204;-68
2023/04/18 02:37:31;;;;;;;10.93;9.82;;;;;;;;;;5081817;28;20196;-68
2023/04/18 02:39:57;;;;;;;11.00;9.85;;;;;;;;;;5082236;28;20200;-68
2023/04/18 02:42:23;;;;;;;9.82;8.77;;;;;;;;;;5081568;28;20193;-68
2023/04/18 02:44:50;;;;;;;11.77;9.77;;;;;;;;;;5081989;28;20446;-68
2023/04/18 02:47:16;;;;;;;10.43;9.40;;;;;;;;;;5082167;28;20196;-68
2023/04/18 02:49:43;;;;;;;10.23;9.23;;;;;;;;;;5085578;28;20254;-68
2023/04/18 02:52:10;;;;;;;12.32;10.05;;;;;;;;;;5085244;28;20310;-67
2023/04/18 02:54:36;;;;;;;10.32;9.25;;;;;;;;;;5085909;28;20207;-67
2023/04/18 02:57:02;;;;;;;10.43;9.40;;;;;;;;;;5085523;28;20235;-68
2023/04/18 02:59:29;;;;;;;11.57;9.60;;;;;;;;;;5085534;28;20410;-67
2023/04/18 03:01:55;;;;;;;10.57;9.45;;;;;;;;;;5085383;28;20212;-68
2023/04/18 03:04:21;;;;;;;13.30;11.48;;;;;;;;;;5085169;28;20196;-68
2023/04/18 03:06:49;;;;;;;9.90;9.00;;;;;;;;;;5085387;28;20247;-68
2023/04/18 03:09:15;;;;;;;10.68;9.55;;;;;;;;;;5085480;28;20196;-68
2023/04/18 03:11:41;;;;;;;10.35;8.82;;;;;;;;;;5085095;28;20653;-67
2023/04/18 03:14:07;;;;;;;11.10;10.00;;;;;;;;;;5084881;28;20456;-67
2023/04/18 03:16:34;;;;;;;10.20;9.23;;;;;;;;;;5085268;28;20545;-67
2023/04/18 03:19:01;;;;;;;11.00;9.57;;;;;;;;;;5084950;28;20196;-67
2023/04/18 03:21:27;;;;;;;11.27;10.13;;;;;;;;;;5085084;28;20382;-68
2023/04/18 03:23:55;;;;;;;9.90;8.95;;;;;;;;;;5084703;28;20219;-68
2023/04/18 03:26:21;;;;;;;9.80;8.88;;;;;;;;;;5084877;28;20219;-67
2023/04/18 03:28:47;;;;;;;11.05;9.88;;;;;;;;;;5084844;28;20216;-67
2023/04/18 03:31:13;;;;;;;13.77;11.00;;;;;;;;;;5084622;28;20254;-67
2023/04/18 03:33:41;;;;;;;11.30;9.90;;;;;;;;;;5084468;28;20203;-67
2023/04/18 03:36:07;;;;;;;11.13;10.02;;;;;;;;;;5084520;28;20263;-67
2023/04/18 03:38:33;;;;;;;11.68;9.60;;;;;;;;;;5084694;28;20206;-67
2023/04/18 03:41:01;;;;;;;11.27;10.18;;;;;;;;;;5084568;28;20386;-69
2023/04/18 03:43:27;;;;;;;14.00;10.02;;;;;;;;;;5084420;28;20208;-68
2023/04/18 03:45:54;;;;;;;10.10;8.88;;;;;;;;;;5084484;28;20203;-68
2023/04/18 03:48:20;;;;;;;11.23;9.82;;;;;;;;;;5084313;28;20196;-68
2023/04/18 03:50:46;;;;;;;10.60;9.48;;;;;;;;;;5084399;28;20204;-68
2023/04/18 03:53:13;;;;;;;11.82;9.85;;;;;;;;;;5084325;28;20196;-68
2023/04/18 03:55:39;;;;;;;10.82;9.15;;;;;;;;;;5084280;28;20396;-68
2023/04/18 03:58:07;;;;;;;14.02;10.55;;;;;;;;;;5084228;28;20201;-68
2023/04/18 04:00:33;;;;;;;11.30;10.20;;;;;;;;;;5084178;28;20386;-68
2023/04/18 04:02:59;;;;;;;10.55;9.65;;;;;;;;;;5083878;28;20391;-68
2023/04/18 04:05:25;;;;;;;11.32;10.23;;;;;;;;;;5084324;28;20250;-68
2023/04/18 04:07:52;;;;;;;13.13;10.15;;;;;;;;;;5084163;28;20196;-68
2023/04/18 04:10:18;;;;;;;11.98;10.38;;;;;;;;;;5084383;28;20234;-68
2023/04/18 04:12:45;;;;;;;12.10;10.27;;;;;;;;;;5083681;28;20236;-68
2023/04/18 04:15:13;;;;;;;11.77;10.57;;;;;;;;;;5083972;28;20224;-69
2023/04/18 04:17:39;;;;;;;11.80;10.70;;;;;;;;;;5083911;28;20203;-69
2023/04/18 04:20:06;;;;;;;12.45;10.25;;;;;;;;;;5084112;28;20201;-69
2023/04/18 04:22:33;;;;;;;12.82;10.18;;;;;;;;;;5083618;28;20192;-69
2023/04/18 04:24:59;;;;;;;12.57;10.45;;;;;;;;;;5083840;28;20556;-69
2023/04/18 04:27:25;;;;;;;12.90;11.35;;;;;;;;;;5083946;28;20216;-69
2023/04/18 04:29:52;;;;;;;12.23;10.35;;;;;;;;;;5083441;28;20428;-69
2023/04/18 04:32:20;;;;;;;12.13;10.68;;;;;;;;;;5083210;28;20220;-69
2023/04/18 04:34:46;;;;;;;11.75;9.88;;;;;;;;;;5083654;28;20204;-69
2023/04/18 04:37:14;;;;;;;12.07;10.75;;;;;;;;;;5083734;28;20223;-69
2023/04/18 04:39:40;;;;;;;10.73;9.63;;;;;;;;;;5083471;28;20212;-69
2023/04/18 04:42:06;;;;;;;12.38;11.13;;;;;;;;;;5083369;28;20256;-69
2023/04/18 04:44:34;;;;;;;12.38;10.27;;;;;;;;;;5083009;28;20262;-69
2023/04/18 04:47:00;;;;;;;12.10;10.52;;;;;;;;;;5083173;28;20196;-69
2023/04/18 04:49:28;;;;;;;12.02;10.65;;;;;;;;;;5083277;28;20196;-69
2023/04/18 04:51:54;;;;;;;14.90;11.52;;;;;;;;;;5083018;28;20216;-69
2023/04/18 04:54:21;;;;;;;12.45;11.15;;;;;;;;;;5082733;28;20201;-69
2023/04/18 04:56:47;;;;;;;14.65;10.57;;;;;;;;;;5082927;28;20257;-69
2023/04/18 04:59:13;;;;;;;13.18;10.75;;;;;;;;;;5082704;28;20200;-69
2023/04/18 05:01:40;;;;;;;11.90;10.65;;;;;;;;;;5083001;28;20192;-69
2023/04/18 05:04:06;;;;;;;15.93;10.75;;;;;;;;;;5082653;28;20200;-68
2023/04/18 05:06:33;;;;;;;13.00;11.10;;;;;;;;;;5082752;28;20258;-68
2023/04/18 05:09:00;;;;;;;11.32;10.13;;;;;;;;;;5082801;28;20196;-68
2023/04/18 05:11:26;;;;;;;11.48;10.18;;;;;;;;;;5081849;28;20207;-68
2023/04/18 05:13:52;;;;;;;11.70;9.88;;;;;;;;;;5082359;28;20442;-68
2023/04/18 05:16:19;;;;;;;12.13;10.23;;;;;;;;;;5082635;28;20504;-68
2023/04/18 05:18:45;;;;;;;12.90;11.13;;;;;;;;;;5082645;28;20242;-68
2023/04/18 05:21:11;;;;;;;14.45;10.25;;;;;;;;;;5082567;28;20203;-68
2023/04/18 05:23:39;;;;;;;13.85;11.68;;;;;;;;;;5082436;28;20212;-68
2023/04/18 05:26:06;;;;;;;15.43;10.85;;;;;;;;;;5082355;28;20200;-68
2023/04/18 05:28:32;;;;;;;11.57;10.38;;;;;;;;;;5082414;28;20258;-68
2023/04/18 05:31:00;;;;;;;11.77;10.57;;;;;;;;;;5082467;28;20196;-68
2023/04/18 05:33:27;;;;;;;12.57;11.25;;;;;;;;;;5082216;28;20227;-68
2023/04/18 05:35:53;;;;;;;12.50;11.18;;;;;;;;;;5082330;28;20234;-68
2023/04/18 05:38:20;;;;;;;12.40;11.07;;;;;;;;;;5082501;28;20238;-68
2023/04/18 05:40:49;;;;;;;12.88;11.13;;;;;;;;;;5082130;28;20203;-68
2023/04/18 05:43:16;;;;;;;12.20;10.90;;;;;;;;;;5082135;28;20192;-69
2023/04/18 05:45:42;;;;;;;15.40;10.77;;;;;;;;;;5081888;28;20204;-69
2023/04/18 05:48:08;;;;;;;17.50;11.10;;;;;;;;;;5081922;28;20223;-69
2023/04/18 05:50:34;;;;;;;13.15;11.65;;;;;;;;;;5082057;28;20222;-69
2023/04/18 05:53:01;;;;;;;13.40;11.63;;;;;;;;;;5082180;28;20434;-69
2023/04/18 05:55:27;;;;;;;13.27;11.05;;;;;;;;;;5081976;28;20496;-69
2023/04/18 05:57:54;;;;;;;12.45;10.98;;;;;;;;;;5082356;28;20254;-69
2023/04/18 06:00:21;;;;;;;12.68;10.85;;;;;;;;;;5082165;28;20211;-69
2023/04/18 06:02:48;;;;;;;13.48;11.15;;;;;;;;;;5082057;28;20431;-69
2023/04/18 06:05:14;;;;;;;16.00;11.95;;;;;;;;;;5081959;28;20219;-69
2023/04/18 06:07:41;;;;;;;12.13;10.88;;;;;;;;;;5082024;28;20263;-69
2023/04/18 06:10:09;;;;;;;12.77;11.45;;;;;;;;;;5081993;28;20253;-70
2023/04/18 06:12:36;;;;;;;16.77;11.50;;;;;;;;;;5081541;28;20577;-69
2023/04/18 06:15:04;;;;;;;13.15;11.15;;;;;;;;;;5081956;28;20201;-69
2023/04/18 06:17:31;;;;;;;12.75;11.35;;;;;;;;;;5082001;28;20219;-69
2023/04/18 06:19:57;;;;;;;12.55;10.90;;;;;;;;;;5081980;28;20385;-69
2023/04/18 06:22:23;;;;;;;15.48;11.43;;;;;;;;;;5082050;28;20197;-69
2023/04/18 06:24:50;;;;;;;13.07;11.70;;;;;;;;;;5086065;28;20420;-69
2023/04/18 06:27:16;;;;;;;14.13;11.48;;;;;;;;;;5086112;28;20391;-69
2023/04/18 06:29:42;;;;;;;15.52;12.27;;;;;;;;;;5085853;28;20250;-69
2023/04/18 06:32:10;;;;;;;13.73;11.73;;;;;;;;;;5085648;28;20573;-69
2023/04/18 06:34:37;;;;;;;12.85;11.50;;;;;;;;;;5086089;28;20196;-69
2023/04/18 06:37:03;;;;;;;13.93;11.60;;;;;;;;;;5085507;28;20197;-69
2023/04/18 06:39:30;;;;;;;17.20;11.65;;;;;;;;;;5085474;28;20219;-69
2023/04/18 06:41:56;;;;;;;13.38;11.35;;;;;;;;;;5085626;28;20203;-69
2023/04/18 06:44:22;;;;;;;13.75;11.90;;;;;;;;;;5085279;28;20200;-69
2023/04/18 06:46:49;;;;;;;13.90;11.40;;;;;;;;;;5085374;28;20204;-69
2023/04/18 06:49:16;;;;;;;12.93;11.63;;;;;;;;;;5085380;28;20226;-69
2023/04/18 06:51:43;;;;;;;14.93;11.77;;;;;;;;;;5085138;28;20200;-69
2023/04/18 06:54:09;;;;;;;11.82;10.55;;;;;;;;;;5085510;28;20242;-69
2023/04/18 06:56:35;;;;;;;18.42;12.48;;;;;;;;;;5085580;28;20204;-69
2023/04/18 06:59:01;;;;;;;12.55;11.25;;;;;;;;;;5085121;28;20196;-70
2023/04/18 07:01:30;;;;;;;14.90;11.82;;;;;;;;;;5085388;28;20272;-69
2023/04/18 07:03:57;;;;;;;14.27;12.63;;;;;;;;;;5085356;28;20193;-69
2023/04/18 07:06:25;;;;;;;12.27;10.95;;;;;;;;;;5084861;28;20204;-69
2023/04/18 07:08:51;;;;;;;15.18;12.57;;;;;;;;;;5075246;28;20474;-69
2023/04/18 07:11:18;;;;;;;12.65;11.13;;;;;;;;;;5080136;28;20220;-69
2023/04/18 07:13:46;;;;;;;13.25;11.95;;;;;;;;;;5078940;28;20228;-69
2023/04/18 07:16:12;;;;;;;14.13;11.80;;;;;;;;;;5079337;28;20280;-69
2023/04/18 07:18:38;;;;;;;13.48;11.38;;;;;;;;;;5079101;28;20262;-69
2023/04/18 07:21:06;;;;;;;13.40;10.98;;;;;;;;;;5078822;28;20212;-69
2023/04/18 07:23:33;;;;;;;16.50;12.30;;;;;;;;;;5078894;28;20205;-69
2023/04/18 07:26:01;;;;;;;13.00;11.60;;;;;;;;;;5079370;28;20318;-69
2023/04/18 07:28:27;;;;;;;12.60;11.30;;;;;;;;;;5079161;28;20270;-69
2023/04/18 07:30:54;;;;;;;14.40;11.73;;;;;;;;;;5079501;28;20209;-69
2023/04/18 07:33:20;;;;;;;13.48;11.50;;;;;;;;;;5078683;28;20424;-70
2023/04/18 07:35:46;;;;;;;13.10;11.80;;;;;;;;;;5079442;28;20209;-70
2023/04/18 07:38:13;;;;;;;13.55;11.82;;;;;;;;;;5079681;28;20238;-70
2023/04/18 07:40:40;;;;;;;13.55;12.13;;;;;;;;;;5079844;28;20209;-70
2023/04/18 07:43:07;;;;;;;15.93;12.45;;;;;;;;;;5079286;28;20223;-70
2023/04/18 07:45:34;;;;;;;14.10;12.30;;;;;;;;;;5079235;28;20216;-70
2023/04/18 07:48:01;;;;;;;14.75;12.65;;;;;;;;;;5078970;28;20283;-70
2023/04/18 07:50:27;;;;;;;14.30;12.90;;;;;;;;;;5078798;28;20209;-69
2023/04/18 07:52:54;;;;;;;16.85;13.57;;;;;;;;;;5078750;28;20431;-69
2023/04/18 07:55:20;;;;;;;14.25;12.55;;;;;;;;;;5079026;28;20585;-69
2023/04/18 07:57:49;;;;;;;14.88;12.55;;;;;;;;;;5079065;28;20404;-69
2023/04/18 08:00:15;;;;;;;15.00;12.45;;;;;;;;;;5078830;28;20215;-69
2023/04/18 08:02:42;;;;;;;16.05;12.43;;;;;;;;;;5078523;28;20212;-69
2023/04/18 08:05:08;;;;;;;14.27;12.73;;;;;;;;;;5079109;28;20512;-69
2023/04/18 08:07:35;;;;;;;15.23;13.57;;;;;;;;;;5079403;28;20444;-70
2023/04/18 08:10:01;;;;;;;14.77;12.48;;;;;;;;;;5078859;28;20414;-70
2023/04/18 08:12:27;;;;;;;17.08;13.27;;;;;;;;;;5078344;28;20285;-70
2023/04/18 08:14:55;;;;;;;15.52;12.50;;;;;;;;;;5078414;28;20220;-70
2023/04/18 08:17:22;;;;;;;16.23;12.90;;;;;;;;;;5078783;28;20503;-69
2023/04/18 08:19:48;;;;;;;15.10;12.77;;;;;;;;;;5078291;28;20573;-70
2023/04/18 08:22:14;;;;;;;14.68;13.02;;;;;;;;;;5078085;28;20504;-69
2023/04/18 08:24:40;;;;;;;15.90;13.07;;;;;;;;;;5078381;28;20250;-69
2023/04/18 08:27:07;;;;;;;17.95;12.45;;;;;;;;;;5081130;28;20442;-61
2023/04/18 08:29:33;;;;;;;17.30;14.05;;;;;;;;;;5081298;28;20205;-60
2023/04/18 08:32:00;;;;;;;16.58;13.35;;;;;;;;;;5080973;28;20204;-61
2023/04/18 08:34:28;;;;;;;14.68;12.13;;;;;;;;;;5080457;28;20236;-60
2023/04/18 08:36:54;;;;;;;14.70;13.07;;;;;;;;;;5080506;28;20204;-60
2023/04/18 08:39:20;;;;;;;14.40;11.93;;;;;;;;;;5080747;28;20208;-60
2023/04/18 08:41:50;;;;;;;13.30;11.90;;;;;;;;;;5080723;28;20208;-59
2023/04/18 08:44:17;;;;;;;15.10;12.55;;;;;;;;;;5080418;28;20207;-60
2023/04/18 08:46:43;;;;;;;14.63;12.02;;;;;;;;;;5079736;28;20208;-60
2023/04/18 08:49:11;;;;;;;13.70;12.07;;;;;;;;;;5080542;28;20204;-58
2023/04/18 08:51:40;;;;;;;14.00;12.55;;;;;;;;;;5081203;28;20531;-59
2023/04/18 08:54:06;;;;;;;14.27;12.23;;;;;;;;;;5080437;28;20547;-59
2023/04/18 08:56:36;;;;;;;15.50;12.82;;;;;;;;;;5080748;28;20491;-59
2023/04/18 08:59:02;;;;;;;14.27;12.50;;;;;;;;;;5081004;28;20205;-59
2023/04/18 09:01:47;;;;;;;13.68;12.25;;;;;;;;;;5080572;28;20355;-60
2023/04/18 09:04:31;;;;;;;19.67;15.73;;;;;;;;;;5074778;28;20208;-59
2023/04/18 09:06:57;;;;;;;16.35;13.38;;;;;;;;;;5080005;28;20399;-59
2023/04/18 09:09:26;;;;;;;15.25;12.68;;;;;;;;;;5080300;28;20446;-59
2023/04/18 09:11:53;;;;;;;14.82;12.10;;;;;;;;;;5080743;28;20371;-62
2023/04/18 09:14:23;;;;;;;14.70;13.10;;;;;;;;;;5080065;28;20228;-59
2023/04/18 09:16:50;;;;;;;13.65;12.18;;;;;;;;;;5079875;28;20204;-59
2023/04/18 09:19:17;;;;;;;14.18;12.60;;;;;;;;;;5080054;28;20515;-59
2023/04/18 09:21:45;;;;;;;13.63;11.43;;;;;;;;;;5079900;28;20326;-59
2023/04/18 09:24:19;;;;;;;16.52;13.15;;;;;;;;;;5080059;28;20224;-59
2023/04/18 09:26:46;;;;;;;16.67;12.55;;;;;;;;;;5080018;28;20453;-59
2023/04/18 09:29:13;;;;;;;14.65;12.57;;;;;;;;;;5079808;28;20542;-60
2023/04/18 09:31:52;;;;;;;15.73;13.07;;;;;;;;;;5080347;28;20250;-60
2023/04/18 09:34:23;;;;;;;13.55;12.15;;;;;;;;;;5079629;28;20250;-60
2023/04/18 09:37:04;;;;;;;14.60;12.93;;;;;;;;;;5080007;28;21032;-60
2023/04/18 09:39:30;;;;;;;16.90;12.80;;;;;;;;;;5079761;28;20208;-60
2023/04/18 09:41:57;;;;;;;16.20;12.25;;;;;;;;;;5079651;28;20471;-60
2023/04/18 09:44:23;;;;;;;16.38;13.15;;;;;;;;;;5079812;28;20193;-60
2023/04/18 09:46:50;;;;;;;17.35;13.82;;;;;;;;;;5079227;28;20242;-59
2023/04/18 09:49:17;;;;;;;17.08;13.63;;;;;;;;;;5079367;28;20208;-60
2023/04/18 09:51:45;;;;;;;16.00;12.48;;;;;;;;;;5079763;28;20216;-60
2023/04/18 09:54:14;;;;;;;14.15;12.68;;;;;;;;;;5079810;28;20232;-60
2023/04/18 09:56:42;;;;;;;13.15;11.85;;;;;;;;;;5079455;28;20214;-60
2023/04/18 09:59:09;;;;;;;13.35;11.95;;;;;;;;;;5079717;28;20204;-59
2023/04/18 10:01:36;;;;;;;12.10;10.90;;;;;;;;;;5079835;28;20306;-60
2023/04/18 10:04:03;;;;;;;14.73;12.10;;;;;;;;;;5079669;28;20430;-60
2023/04/18 10:06:30;;;;;;;14.13;11.45;;;;;;;;;;5080030;28;20214;-60
2023/04/18 10:08:58;;;;;;;14.02;12.02;;;;;;;;;;5079595;28;20204;-60
2023/04/18 10:11:24;;;;;;;12.13;10.82;;;;;;;;;;5079856;28;20244;-60
2023/04/18 10:13:53;;;;;;;12.30;11.02;;;;;;;;;;5079116;28;20224;-60
2023/04/18 10:16:20;;;;;;;11.48;10.23;;;;;;;;;;5080014;28;20233;-60
2023/04/18 10:18:46;;;;;;;13.18;10.65;;;;;;;;;;5079824;28;20208;-60
2023/04/18 10:21:12;;;;;;;11.13;9.95;;;;;;;;;;5079832;28;20208;-60
2023/04/18 10:23:39;;;;;;;11.10;10.00;;;;;;;;;;5079694;28;20205;-60
2023/04/18 10:26:07;;;;;;;9.57;8.63;;;;;;;;;;5079682;28;20200;-60
2023/04/18 10:28:49;;;;;;;9.07;8.30;;;;;;;;;;5079791;28;20274;-60
2023/04/18 10:31:16;;;;;;;9.32;8.45;;;;;;;;;;5079476;28;20511;-60
2023/04/18 10:33:46;;;;;;;9.85;8.93;;;;;;;;;;5079079;28;20227;-60
2023/04/18 10:36:14;;;;;;;10.18;9.20;;;;;;;;;;5079353;28;20188;-60
2023/04/18 10:38:44;;;;;;;10.13;9.13;;;;;;;;;;5079554;28;20221;-60
2023/04/18 10:41:20;;;;;;;9.23;8.32;;;;;;;;;;5079720;28;20325;-60
2023/04/18 10:44:04;;;;;;;12.10;8.90;;;;;;;;;;5079578;28;20204;-60
2023/04/18 10:46:31;;;;;;;9.70;8.65;;;;;;;;;;5079341;28;20307;-60
2023/04/18 10:49:12;;;;;;;9.98;8.75;;;;;;;;;;5079424;28;20212;-60
2023/04/18 10:51:39;;;;;;;9.52;8.60;;;;;;;;;;5079584;28;20214;-60
2023/04/18 10:54:07;;;;;;;9.43;8.52;;;;;;;;;;5079371;28;20228;-59
2023/04/18 10:56:35;;;;;;;9.45;7.28;;;;;;;;;;5079560;28;20213;-60
2023/04/18 10:59:02;;;;;;;9.32;8.40;;;;;;;;;;5079324;28;20208;-60
2023/04/18 11:01:29;;;;;;;8.50;7.70;;;;;;;;;;5079352;28;20236;-60
2023/04/18 11:03:55;;;;;;;8.23;7.53;;;;;;;;;;5079299;28;20196;-60
2023/04/18 11:06:22;;;;;;;10.15;7.65;;;;;;;;;;5079247;28;20318;-60
2023/04/18 11:08:48;;;;;;;7.07;6.55;;;;;;;;;;5080240;28;20562;-60
2023/04/18 11:11:15;;;;;;;7.78;7.10;;;;;;;;;;5082537;28;20742;-60
2023/04/18 11:13:56;;;;;;;8.02;7.22;;;;;;;;;;5082451;28;20567;-60
2023/04/18 11:16:27;;;;;;;8.00;7.30;;;;;;;;;;5080427;28;20208;-60
2023/04/18 11:18:54;;;;;;;7.43;6.72;;;;;;;;;;5082677;28;20216;-61
2023/04/18 11:21:20;;;;;;;7.03;6.40;;;;;;;;;;5082832;28;20204;-61
2023/04/18 11:23:46;;;;;;;6.55;5.97;;;;;;;;;;5082344;28;20204;-60
2023/04/18 11:26:16;;;;;;;6.95;6.25;;;;;;;;;;5082619;28;20200;-61
2023/04/18 11:28:42;;;;;;;6.65;6.07;;;;;;;;;;5082588;28;20247;-60
2023/04/18 11:31:08;;;;;;;6.68;6.07;;;;;;;;;;5082648;28;20480;-60
2023/04/18 11:33:36;;;;;;;6.65;6.05;;;;;;;;;;5082572;28;20228;-61
2023/04/18 11:36:02;;;;;;;7.50;5.93;;;;;;;;;;5074713;28;20515;-60
2023/04/18 11:38:30;;;;;;;6.35;5.70;;;;;;;;;;5082651;28;20545;-60
2023/04/18 11:40:56;;;;;;;6.53;5.85;;;;;;;;;;5082081;28;20209;-61
2023/04/18 11:43:23;;;;;;;7.07;6.45;;;;;;;;;;5082073;28;20204;-60
2023/04/18 11:45:53;;;;;;;7.43;5.57;;;;;;;;;;5082520;28;20601;-61
2023/04/18 11:48:19;;;;;;;7.43;6.15;;;;;;;;;;5082680;28;20439;-61
2023/04/18 11:50:47;;;;;;;8.93;6.70;;;;;;;;;;5082352;28;20253;-60
2023/04/18 11:53:13;;;;;;;6.55;5.97;;;;;;;;;;5082127;28;20210;-61
2023/04/18 11:55:39;;;;;;;6.63;6.03;;;;;;;;;;5082142;28;20236;-60
2023/04/18 11:58:06;;;;;;;7.03;6.43;;;;;;;;;;5082427;28;20208;-60
2023/04/18 12:00:33;;;;;;;6.07;5.68;;;;;;;;;;5082326;28;20215;-60
2023/04/18 12:03:00;;;;;;;6.30;5.72;;;;;;;;;;5082192;28;20230;-59
2023/04/18 12:05:27;;;;;;;6.78;6.18;;;;;;;;;;5082205;28;20204;-61
2023/04/18 12:07:55;;;;;;;6.93;6.40;;;;;;;;;;5081976;28;20208;-60
2023/04/18 12:10:26;;;;;;;6.63;6.03;;;;;;;;;;5081943;28;20204;-59
2023/04/18 12:12:53;;;;;;;6.30;5.80;;;;;;;;;;5081831;28;20216;-60
2023/04/18 12:15:22;;;;;;;5.95;5.45;;;;;;;;;;5082011;28;20575;-60
2023/04/18 12:17:50;;;;;;;5.50;5.20;;;;;;;;;;5080490;28;20219;-59
2023/04/18 12:20:17;;;;;;;6.60;5.85;;;;;;;;;;5078358;28;20254;-59
2023/04/18 12:22:44;;;;;;;6.88;6.22;;;;;;;;;;5078916;28;20432;-59
2023/04/18 12:25:20;;;;;;;6.25;5.65;;;;;;;;;;5079233;28;20371;-59
2023/04/18 12:27:47;;;;;;;6.47;5.88;;;;;;;;;;5079115;28;20223;-60
2023/04/18 12:30:14;;;;;;;6.68;5.97;;;;;;;;;;5079121;28;20205;-59
2023/04/18 12:32:40;;;;;;;6.95;5.88;;;;;;;;;;5078688;28;20620;-59
2023/04/18 12:35:07;;;;;;;6.30;5.72;;;;;;;;;;5079137;28;20482;-59
2023/04/18 12:37:33;;;;;;;11.95;10.13;;;;;;;;;;5079146;28;20216;-59
2023/04/18 12:40:00;;;;;;;9.98;7.35;;;;;;;;;;5078828;28;20407;-59
2023/04/18 12:42:27;;;;;;;9.00;7.85;;;;;;;;;;5078704;28;20759;-59
2023/04/18 12:44:53;;;;;;;6.50;5.80;;;;;;;;;;5078731;28;20406;-59
2023/04/18 12:47:20;;;;;;;5.78;5.20;;;;;;;;;;5078658;28;20562;-60
2023/04/18 12:49:46;;;;;;;6.07;5.57;;;;;;;;;;5078526;28;20222;-59
2023/04/18 12:52:12;;;;;;;6.93;5.55;;;;;;;;;;5077884;28;20567;-59
2023/04/18 12:54:38;;;;;;;5.65;5.15;;;;;;;;;;5078519;28;20216;-59
2023/04/18 12:57:05;;;;;;;5.15;4.53;;;;;;;;;;5078528;28;20230;-59
2023/04/18 12:59:32;;;;;;;5.47;5.07;;;;;;;;;;5078827;28;20212;-59
2023/04/18 13:01:58;;;;;;;5.30;4.78;;;;;;;;;;5078667;28;20293;-60
2023/04/18 13:04:25;;;;;;;4.65;4.35;;;;;;;;;;5078431;28;20212;-59
2023/04/18 13:06:51;;;;;;;5.70;5.30;;;;;;;;;;5078358;28;20538;-59
2023/04/18 13:09:17;;;;;;;5.20;4.82;;;;;;;;;;5078422;28;20208;-60
2023/04/18 13:11:43;;;;;;;6.47;4.75;;;;;;;;;;5078568;28;20208;-59
2023/04/18 13:14:09;;;;;;;5.00;4.60;;;;;;;;;;5078254;28;20508;-60
2023/04/18 13:16:37;;;;;;;4.97;4.68;;;;;;;;;;5078250;28;20250;-60
2023/04/18 13:19:03;;;;;;;4.50;4.20;;;;;;;;;;5078235;28;20209;-59
2023/04/18 13:21:30;;;;;;;6.38;4.20;;;;;;;;;;5078477;28;20220;-60
2023/04/18 13:23:56;;;;;;;4.72;4.43;;;;;;;;;;5078508;28;20208;-59
2023/04/18 13:26:22;;;;;;;5.30;4.90;;;;;;;;;;5078562;28;20212;-59
2023/04/18 13:28:49;;;;;;;4.82;4.35;;;;;;;;;;5078300;28;20232;-60
2023/04/18 13:31:15;;;;;;;5.25;4.70;;;;;;;;;;5077668;28;20487;-60
2023/04/18 13:33:43;;;;;;;4.97;4.43;;;;;;;;;;5078147;28;20208;-60
2023/04/18 13:36:09;;;;;;;4.72;4.43;;;;;;;;;;5077993;28;20431;-60
2023/04/18 13:38:35;;;;;;;4.35;4.03;;;;;;;;;;5077669;28;20254;-60
2023/04/18 13:41:01;;;;;;;4.65;4.25;;;;;;;;;;5077620;28;20208;-60
2023/04/18 13:43:28;;;;;;;4.63;4.22;;;;;;;;;;5078055;28;20266;-60
2023/04/18 13:45:54;;;;;;;4.03;3.80;;;;;;;;;;5078386;28;20211;-60
2023/04/18 13:48:20;;;;;;;4.38;3.78;;;;;;;;;;5078486;28;20227;-61
2023/04/18 13:50:48;;;;;;;4.18;3.90;;;;;;;;;;5077870;28;20212;-60
2023/04/18 13:53:15;;;;;;;4.15;3.85;;;;;;;;;;5077833;28;20227;-60
2023/04/18 13:55:41;;;;;;;3.72;3.53;;;;;;;;;;5078136;28;20447;-60
2023/04/18 13:58:07;;;;;;;4.25;4.05;;;;;;;;;;5077728;28;20531;-61
2023/04/18 14:00:33;;;;;;;4.35;4.10;;;;;;;;;;5077470;28;20208;-60
2023/04/18 14:03:00;;;;;;;4.15;3.85;;;;;;;;;;5077133;28;20444;-60
2023/04/18 14:05:26;;;;;;;4.40;4.03;;;;;;;;;;5077429;28;20227;-60
2023/04/18 14:08:00;;;;;;;5.38;3.67;;;;;;;;;;5077560;28;20208;-60
2023/04/18 14:10:26;;;;;;;4.32;3.92;;;;;;;;;;5077338;28;20246;-61
2023/04/18 14:12:53;;;;;;;4.53;4.22;;;;;;;;;;5077134;28;20386;-60
2023/04/18 14:15:20;;;;;;;4.13;3.90;;;;;;;;;;5077342;28;20240;-60
2023/04/18 14:17:46;;;;;;;7.00;4.35;;;;;;;;;;5077806;28;20236;-60
2023/04/18 14:20:14;;;;;;;4.97;4.60;;;;;;;;;;5077630;28;20208;-61
2023/04/18 14:22:40;;;;;;;4.47;4.10;;;;;;;;;;5077518;28;20372;-60
2023/04/18 14:25:09;;;;;;;4.63;4.32;;;;;;;;;;5077768;28;20257;-61